Time;durP1;ratioP1;P1;durP2;ratioP2;P2;SDS_P1;SDS_P2;PMS_P1;PMS_P2;Temp;Humidity;BMP_temperature;BMP_pressure;BME280_temperature;BME280_humidity;BME280_pressure;Samples;Min_cycle;Max_cycle;Signal;HPM_P1;HPM_P2
2021/06/09 00:03:40;;;;;;;26.50;17.70;;;;;;;14.68;58.63;98854.28;512866;1089;103124;-43
2021/06/09 00:13:47;;;;;;;35.00;22.70;;;;;;;14.47;58.97;98849.80;512884;1088;103099;-43
2021/06/09 00:23:55;;;;;;;30.97;19.40;;;;;;;14.43;59.52;98852.15;512740;1089;103592;-43
2021/06/09 00:34:03;;;;;;;31.80;19.50;;;;;;;14.52;59.79;98857.02;512757;1088;103159;-42
2021/06/09 00:44:11;;;;;;;25.90;19.17;;;;;;;14.45;60.20;98851.90;512914;1088;103098;-43
2021/06/09 00:54:17;;;;;;;43.27;27.43;;;;;;;14.31;60.26;98853.29;513043;1089;103113;-43
2021/06/09 01:04:23;;;;;;;27.47;19.40;;;;;;;13.91;60.48;98848.25;512651;1090;103555;-41
2021/06/09 01:14:31;;;;;;;27.80;18.03;;;;;;;13.95;60.73;98834.22;513585;1088;103102;-43
2021/06/09 01:24:39;;;;;;;31.93;19.13;;;;;;;13.95;61.51;98836.88;512830;1088;103119;-44
2021/06/09 01:34:47;;;;;;;29.40;18.33;;;;;;;13.90;61.76;98836.81;512949;1089;103504;-42
2021/06/09 01:44:54;;;;;;;28.13;20.27;;;;;;;13.80;62.19;98834.03;512917;1088;103062;-43
2021/06/09 01:55:02;;;;;;;26.70;19.27;;;;;;;13.61;62.47;98840.67;512935;1088;103505;-43
2021/06/09 02:05:12;;;;;;;26.28;18.00;;;;;;;13.59;62.85;98840.91;512883;1090;103102;-42
2021/06/09 02:15:19;;;;;;;23.70;15.57;;;;;;;13.46;62.67;98835.92;512881;1088;103460;-43
2021/06/09 02:25:27;;;;;;;25.97;15.90;;;;;;;13.39;63.15;98832.64;512795;1088;103122;-45
2021/06/09 02:35:34;;;;;;;20.75;15.68;;;;;;;13.38;63.39;98829.18;512882;1089;103134;-43
2021/06/09 02:45:43;;;;;;;22.43;15.83;;;;;;;13.36;63.69;98831.27;512690;1090;103102;-45
2021/06/09 02:56:09;;;;;;;16.98;13.83;;;;;;;13.48;63.73;98833.83;513069;1089;103101;-43
2021/06/09 03:06:16;;;;;;;19.67;13.17;;;;;;;13.73;64.08;98838.73;512906;1088;103205;-43
2021/06/09 03:16:22;;;;;;;21.07;15.90;;;;;;;16.13;63.47;98831.91;512870;1089;103133;-44
2021/06/09 03:26:36;;;;;;;19.45;13.60;;;;;;;18.24;61.02;98835.98;513077;1089;103105;-43
2021/06/09 03:36:42;;;;;;;18.80;14.40;;;;;;;19.98;58.98;98839.77;512597;1089;103501;-43
2021/06/09 03:46:51;;;;;;;19.43;13.23;;;;;;;21.23;57.07;98840.21;512868;1090;103502;-44
2021/06/09 03:56:58;;;;;;;14.93;12.73;;;;;;;22.54;55.26;98841.56;513019;1089;103138;-42
2021/06/09 04:07:03;;;;;;;17.40;13.30;;;;;;;23.86;53.87;98838.38;512831;1090;103034;-42
2021/06/09 04:17:11;;;;;;;20.50;12.70;;;;;;;24.54;52.05;98835.41;513017;1089;103156;-43
2021/06/09 04:27:23;;;;;;;12.57;10.67;;;;;;;25.72;50.97;98841.39;512908;1089;103258;-45
2021/06/09 04:37:31;;;;;;;12.83;10.33;;;;;;;26.57;49.41;98847.52;512796;1088;103103;-44
2021/06/09 04:47:39;;;;;;;10.13;9.30;;;;;;;26.88;47.45;98853.34;512829;1088;103124;-43
2021/06/09 04:57:47;;;;;;;18.53;9.50;;;;;;;26.71;46.72;98852.67;512882;1088;103157;-43
2021/06/09 05:07:55;;;;;;;20.37;8.93;;;;;;;26.16;46.03;98842.79;512974;1088;103460;-44
2021/06/09 05:18:07;;;;;;;15.03;9.23;;;;;;;26.40;45.21;98856.55;512742;1089;103186;-44
2021/06/09 05:28:15;;;;;;;15.83;8.63;;;;;;;26.23;45.15;98853.91;512818;1088;103138;-44
2021/06/09 05:38:24;;;;;;;13.27;9.10;;;;;;;26.24;45.53;98853.58;512938;1090;103143;-43
2021/06/09 05:48:32;;;;;;;11.57;7.67;;;;;;;25.94;45.31;98851.98;513368;1089;103073;-44
2021/06/09 05:58:40;;;;;;;13.03;7.70;;;;;;;25.77;45.51;98857.45;513026;1090;103121;-44
2021/06/09 06:08:48;;;;;;;11.03;9.10;;;;;;;26.10;45.56;98865.78;513245;1091;103128;-45
2021/06/09 06:18:55;;;;;;;7.33;6.40;;;;;;;26.70;44.92;98864.65;513119;1088;103119;-45
2021/06/09 06:29:04;;;;;;;7.53;5.50;;;;;;;26.66;44.32;98867.23;512814;1088;103082;-45
2021/06/09 06:39:12;;;;;;;8.87;6.10;;;;;;;26.97;44.03;98874.17;512849;1092;103473;-43
2021/06/09 06:49:18;;;;;;;10.90;6.10;;;;;;;26.94;43.04;98872.92;512850;1092;103060;-43
2021/06/09 06:59:28;;;;;;;13.70;5.10;;;;;;;27.11;43.09;98874.73;512763;1088;103163;-42
2021/06/09 07:09:35;;;;;;;6.55;5.10;;;;;;;27.31;41.52;98876.63;512704;1089;103169;-44
2021/06/09 07:19:44;;;;;;;11.13;4.80;;;;;;;27.13;41.59;98881.41;512768;1089;103562;-43
2021/06/09 07:29:57;;;;;;;7.17;6.57;;;;;;;26.16;41.95;98878.02;512977;1091;103496;-44
2021/06/09 07:40:07;;;;;;;7.87;5.27;;;;;;;25.69;43.51;98884.25;513118;1088;103105;-44
2021/06/09 07:50:20;;;;;;;13.03;6.33;;;;;;;25.33;43.43;98883.83;512909;1088;103190;-42
2021/06/09 08:10:50;;;;;;;8.57;5.70;;;;;;;26.85;42.92;98881.14;512651;1092;103072;-44
2021/06/09 08:21:03;;;;;;;7.20;4.63;;;;;;;27.63;41.61;98876.97;512840;1088;103104;-43
2021/06/09 08:31:12;;;;;;;4.40;4.00;;;;;;;27.36;39.31;98883.77;512926;1089;103105;-44
2021/06/09 08:41:21;;;;;;;9.63;4.90;;;;;;;26.79;40.78;98879.75;512886;1088;103158;-42
2021/06/09 08:51:29;;;;;;;9.13;5.20;;;;;;;27.43;40.23;98876.66;512926;1088;103105;-42
2021/06/09 09:01:37;;;;;;;7.10;4.57;;;;;;;27.27;39.60;98878.44;512863;1089;104512;-43
2021/06/09 09:11:45;;;;;;;4.50;3.87;;;;;;;27.25;38.74;98869.83;512716;1088;103132;-42
2021/06/09 09:21:52;;;;;;;5.47;3.47;;;;;;;27.23;38.66;98879.44;512849;1089;103106;-44
2021/06/09 09:32:03;;;;;;;6.10;3.90;;;;;;;27.47;37.76;98869.45;512705;1090;103136;-45
2021/06/09 09:42:21;;;;;;;5.40;3.93;;;;;;;27.69;36.33;98862.06;512826;1088;103421;-44
2021/06/09 09:52:28;;;;;;;8.03;4.30;;;;;;;27.99;36.62;98855.30;512754;1090;103105;-43
2021/06/09 10:02:44;;;;;;;9.17;4.00;;;;;;;28.45;36.99;98855.99;513113;1089;103104;-41
2021/06/09 10:13:12;;;;;;;5.87;4.60;;;;;;;28.14;35.04;98851.88;512803;1088;103451;-44
2021/06/09 10:23:39;;;;;;;18.43;4.60;;;;;;;27.84;36.24;98850.52;512993;1092;103457;-44
2021/06/09 10:33:47;;;;;;;3.97;2.97;;;;;;;28.32;35.14;98851.69;512793;1092;103516;-42
2021/06/09 10:43:52;;;;;;;8.60;3.80;;;;;;;28.45;33.65;98845.11;512839;1089;103105;-43
2021/06/09 10:53:58;;;;;;;7.57;5.17;;;;;;;27.75;34.30;98839.77;512807;1089;103104;-43
2021/06/09 11:04:04;;;;;;;;;;;;;;;26.91;35.73;98844.53;513415;1090;103134;-42
2021/06/09 11:14:19;;;;;;;9.20;5.80;;;;;;;27.73;36.58;98835.80;513096;1090;103122;-43
2021/06/09 11:24:26;;;;;;;6.93;5.20;;;;;;;27.80;36.06;98827.88;512953;1090;103438;-43
2021/06/09 11:34:41;;;;;;;37.25;8.15;;;;;;;27.64;35.91;98833.17;512930;1091;103501;-44
2021/06/09 11:44:48;;;;;;;8.07;6.87;;;;;;;26.77;37.79;98821.53;513524;1089;103142;-42
2021/06/09 11:55:06;;;;;;;;;;;;;;;26.69;37.68;98819.66;512919;1091;103050;-43
2021/06/09 12:05:21;;;;;;;8.60;6.80;;;;;;;27.22;38.22;98794.49;512860;1089;103514;-42
2021/06/09 12:15:28;;;;;;;11.57;6.70;;;;;;;27.16;37.27;98802.03;512847;1091;103133;-41
2021/06/09 12:25:38;;;;;;;7.23;6.63;;;;;;;26.99;37.66;98812.25;513068;1088;103201;-42
2021/06/09 12:35:45;;;;;;;7.60;6.90;;;;;;;26.11;38.33;98796.91;512856;1092;103131;-42
2021/06/09 12:45:53;;;;;;;9.10;7.07;;;;;;;26.08;38.39;98787.53;512890;1089;103400;-42
2021/06/09 12:56:03;;;;;;;7.13;6.20;;;;;;;26.50;38.25;98787.58;512915;1091;103148;-42
2021/06/09 13:06:14;;;;;;;26.10;6.87;;;;;;;26.16;38.62;98783.96;512873;1089;103426;-43
2021/06/09 13:16:25;;;;;;;8.43;6.33;;;;;;;26.14;38.30;98769.95;512755;1092;103131;-42
2021/06/09 13:26:34;;;;;;;7.57;5.40;;;;;;;25.74;38.82;98771.44;513019;1090;103116;-40
2021/06/09 13:47:06;;;;;;;10.93;4.63;;;;;;;25.92;38.21;98762.11;512798;1092;103048;-43
2021/06/09 13:57:13;;;;;;;6.77;5.03;;;;;;;25.84;37.53;98754.83;512946;1089;103124;-42
2021/06/09 14:07:22;;;;;;;4.90;4.10;;;;;;;25.81;37.75;98750.08;512966;1089;103531;-41
2021/06/09 14:17:29;;;;;;;4.20;3.80;;;;;;;25.45;37.08;98754.01;512876;1089;103128;-43
2021/06/09 14:27:47;;;;;;;5.03;2.87;;;;;;;25.21;36.73;98742.95;512923;1089;103416;-41
2021/06/09 14:37:56;;;;;;;12.10;2.80;;;;;;;25.27;36.52;98747.06;512746;1089;104288;-42
2021/06/09 14:58:27;;;;;;;2.40;2.00;;;;;;;24.83;33.06;98746.33;513024;1089;103127;-42
2021/06/09 15:08:33;;;;;;;1.70;1.60;;;;;;;24.77;32.54;98745.70;512888;1088;103128;-42
2021/06/09 15:18:40;;;;;;;22.67;4.10;;;;;;;24.66;32.44;98739.05;512878;1092;103122;-42
2021/06/09 15:28:47;;;;;;;2.07;1.37;;;;;;;24.64;31.68;98737.78;512824;1089;103303;-42
2021/06/09 15:38:53;;;;;;;2.45;1.58;;;;;;;24.59;30.79;98730.61;512993;1090;103419;-42
2021/06/09 15:49:00;;;;;;;4.03;1.83;;;;;;;24.48;31.34;98723.95;512714;1092;103507;-42
2021/06/09 15:59:08;;;;;;;7.78;2.70;;;;;;;24.35;31.57;98722.98;513019;1089;103405;-42
2021/06/09 16:09:16;;;;;;;6.47;2.43;;;;;;;24.21;31.23;98733.13;512759;1092;103530;-42
2021/06/09 16:19:23;;;;;;;7.10;1.40;;;;;;;23.99;31.45;98734.05;512921;1090;103105;-42
2021/06/09 16:29:32;;;;;;;3.80;1.10;;;;;;;23.98;31.65;98737.86;512721;1091;103122;-42
2021/06/09 16:39:40;;;;;;;9.20;2.03;;;;;;;23.73;31.85;98735.89;512787;1089;103140;-43
2021/06/09 16:49:46;;;;;;;10.63;2.73;;;;;;;23.66;32.52;98733.66;512935;1091;103498;-40
2021/06/09 16:59:53;;;;;;;4.10;2.18;;;;;;;23.48;33.35;98735.47;513071;1088;103108;-44
2021/06/09 17:10:01;;;;;;;7.30;2.80;;;;;;;23.28;34.49;98739.50;512749;1092;103052;-41
2021/06/09 17:20:11;;;;;;;5.57;1.93;;;;;;;23.08;34.92;98739.23;512890;1090;103473;-41
2021/06/09 17:30:17;;;;;;;5.50;3.17;;;;;;;22.83;35.53;98738.76;512865;1088;103166;-43
2021/06/09 17:40:26;;;;;;;9.50;3.40;;;;;;;22.58;36.38;98750.91;512976;1088;103105;-42
2021/06/09 17:50:33;;;;;;;3.50;2.20;;;;;;;22.24;36.92;98751.43;513057;1088;103070;-42
2021/06/09 18:11:03;;;;;;;2.57;2.13;;;;;;;21.59;37.65;98769.69;512925;1089;103512;-43
2021/06/09 18:21:10;;;;;;;6.25;2.68;;;;;;;21.27;38.81;98762.45;512909;1089;103447;-42
2021/06/09 18:31:17;;;;;;;4.43;2.80;;;;;;;20.97;39.25;98761.06;512945;1089;103399;-43
2021/06/09 18:41:22;;;;;;;;;;;;;;;20.62;40.40;98778.56;512931;1088;103512;-44
2021/06/09 18:51:28;;;;;;;7.70;3.10;;;;;;;20.20;41.28;98783.66;512992;1089;103249;-43
2021/06/09 19:01:33;;;;;;;12.93;4.70;;;;;;;19.74;42.86;98799.52;512981;1088;103380;-44
2021/06/09 19:11:42;;;;;;;14.60;4.77;;;;;;;19.28;43.62;98813.34;512883;1088;103584;-44
2021/06/09 19:21:46;;;;;;;10.45;5.13;;;;;;;18.82;44.75;98815.58;512911;1089;103123;-42
2021/06/09 19:31:54;;;;;;;14.23;6.93;;;;;;;18.38;45.58;98824.38;512984;1090;103502;-45
2021/06/09 19:42:01;;;;;;;;;;;;;;;17.95;46.77;98835.80;512803;1088;103548;-44
2021/06/09 19:52:10;;;;;;;14.73;7.73;;;;;;;17.60;47.34;98834.79;512798;1088;103539;-43
2021/06/09 20:02:18;;;;;;;17.20;8.30;;;;;;;17.31;48.01;98847.13;512704;1088;103284;-43
2021/06/09 20:12:45;;;;;;;21.77;10.03;;;;;;;16.96;48.73;98840.69;512824;1090;103141;-45
2021/06/09 20:33:14;;;;;;;16.03;8.40;;;;;;;16.55;50.04;98845.91;512999;1088;103163;-43
2021/06/09 20:43:21;;;;;;;20.45;7.65;;;;;;;16.42;50.86;98854.43;512865;1088;103128;-43
2021/06/09 20:53:29;;;;;;;7.80;6.30;;;;;;;16.36;51.30;98863.48;512816;1088;103160;-44
2021/06/09 21:03:35;;;;;;;13.33;7.93;;;;;;;16.34;52.05;98864.81;512902;1090;103129;-44
2021/06/09 21:13:42;;;;;;;9.93;6.60;;;;;;;16.12;52.54;98859.65;513046;1089;103128;-44
2021/06/09 21:23:49;;;;;;;10.33;6.67;;;;;;;15.96;53.25;98862.23;512803;1088;104670;-44
2021/06/09 21:33:56;;;;;;;18.77;9.57;;;;;;;15.69;53.61;98858.88;512950;1088;103116;-45
2021/06/09 21:44:04;;;;;;;11.97;7.03;;;;;;;15.38;54.25;98854.34;512822;1090;104890;-43
2021/06/09 21:54:11;;;;;;;18.30;8.07;;;;;;;15.30;54.33;98859.09;512728;1089;103103;-43
2021/06/09 22:04:19;;;;;;;9.33;7.17;;;;;;;15.25;55.19;98851.06;513009;1090;103121;-42
2021/06/09 22:14:27;;;;;;;10.10;7.20;;;;;;;15.14;55.77;98853.88;513023;1088;103099;-44
2021/06/09 22:24:34;;;;;;;11.10;7.50;;;;;;;14.96;56.24;98842.56;513000;1089;103103;-43
2021/06/09 22:34:43;;;;;;;14.77;8.23;;;;;;;14.79;56.48;98855.17;512850;1088;103156;-43
2021/06/09 22:44:48;;;;;;;;;;;;;;;14.55;56.73;98852.00;512954;1089;103105;-43
2021/06/09 22:54:56;;;;;;;11.33;6.97;;;;;;;14.66;57.17;98847.58;512800;1090;103689;-42
2021/06/09 23:05:04;;;;;;;22.03;8.77;;;;;;;14.60;57.68;98841.41;512795;1088;103492;-42
2021/06/09 23:15:13;;;;;;;13.60;7.63;;;;;;;14.41;57.87;98853.39;512945;1089;103105;-42
2021/06/09 23:25:22;;;;;;;10.57;6.57;;;;;;;14.17;57.95;98852.04;513067;1088;103167;-44
2021/06/09 23:35:30;;;;;;;10.50;6.63;;;;;;;13.97;58.16;98849.95;512823;1088;103498;-43
2021/06/09 23:45:37;;;;;;;12.77;6.43;;;;;;;14.01;58.52;98849.20;513033;1092;103653;-46
2021/06/09 23:55:46;;;;;;;12.25;7.35;;;;;;;14.07;58.79;98863.36;512991;1088;103137;-44
